createdAt,value
2023-02-27T00:00:57.057Z,1.45
2023-02-27T00:03:24.442Z,1.34
2023-02-27T00:05:51.382Z,1.36
2023-02-27T00:08:18.682Z,1.34
2023-02-27T00:10:45.730Z,1.32
2023-02-27T00:13:12.770Z,1.13
2023-02-27T00:15:41.235Z,1.04
2023-02-27T00:18:18.017Z,1.04
2023-02-27T00:20:48.950Z,1.00
2023-02-27T00:23:16.088Z,1.02
2023-02-27T00:25:43.165Z,1.10
2023-02-27T00:28:10.079Z,0.97
2023-02-27T00:30:37.041Z,0.94
2023-02-27T00:33:05.071Z,0.95
2023-02-27T00:35:33.569Z,0.79
2023-02-27T00:38:00.642Z,0.71
2023-02-27T00:40:27.571Z,0.67
2023-02-27T00:42:54.560Z,0.67
2023-02-27T00:45:21.522Z,0.54
2023-02-27T00:47:49.630Z,0.46
2023-02-27T00:50:16.800Z,0.47
2023-02-27T00:52:44.003Z,0.55
2023-02-27T00:55:11.067Z,0.43
2023-02-27T00:57:39.431Z,0.31
2023-02-27T01:00:10.772Z,0.35
2023-02-27T01:02:38.012Z,0.25
2023-02-27T01:05:05.366Z,0.27
2023-02-27T01:07:32.865Z,0.29
2023-02-27T01:10:02.127Z,0.32
2023-02-27T01:12:29.204Z,0.29
2023-02-27T01:14:56.188Z,0.33
2023-02-27T01:17:23.178Z,0.33
2023-02-27T01:19:50.077Z,0.32
2023-02-27T01:22:16.992Z,0.32
2023-02-27T01:24:43.832Z,0.37
2023-02-27T01:27:10.810Z,0.38
2023-02-27T01:29:37.792Z,0.47
2023-02-27T01:32:04.853Z,0.45
2023-02-27T01:34:34.116Z,0.45
2023-02-27T01:37:02.012Z,0.44
2023-02-27T01:39:29.499Z,0.45
2023-02-27T01:41:56.447Z,0.48
2023-02-27T01:44:27.186Z,0.48
2023-02-27T01:46:54.011Z,0.52
2023-02-27T01:49:28.429Z,0.49
2023-02-27T01:52:07.676Z,0.55
2023-02-27T01:54:40.741Z,0.60
2023-02-27T01:57:09.872Z,0.60
2023-02-27T01:59:40.327Z,0.56
2023-02-27T02:02:17.491Z,0.60
2023-02-27T02:04:44.537Z,0.62
2023-02-27T02:07:15.501Z,0.67
2023-02-27T02:09:47.234Z,0.73
2023-02-27T02:12:16.333Z,0.76
2023-02-27T02:14:43.967Z,0.77
2023-02-27T02:17:44.152Z,0.78
2023-02-27T02:20:41.641Z,0.82
2023-02-27T02:23:26.875Z,0.81
2023-02-27T02:26:24.984Z,0.83
2023-02-27T02:29:25.485Z,0.83
2023-02-27T02:32:10.683Z,0.96
2023-02-27T02:34:43.281Z,0.93
2023-02-27T02:37:44.930Z,0.88
2023-02-27T02:40:16.958Z,0.85
2023-02-27T02:43:06.319Z,0.92
2023-02-27T02:46:14.964Z,0.87
2023-02-27T02:48:54.642Z,0.88
2023-02-27T02:51:55.731Z,0.93
2023-02-27T02:54:34.084Z,0.89
2023-02-27T02:57:16.338Z,0.86
2023-02-27T02:59:46.484Z,0.89
2023-02-27T03:02:18.808Z,0.84
2023-02-27T03:05:02.326Z,0.88
2023-02-27T03:07:40.304Z,0.86
2023-02-27T03:10:48.488Z,0.89
2023-02-27T03:13:27.763Z,0.88
2023-02-27T03:16:06.488Z,0.86
2023-02-27T03:18:54.136Z,0.93
2023-02-27T03:21:34.492Z,0.86
2023-02-27T03:24:06.607Z,0.84
2023-02-27T03:26:41.468Z,0.85
2023-02-27T03:29:12.355Z,0.79
2023-02-27T03:31:47.915Z,0.75
2023-02-27T03:34:19.790Z,0.74
2023-02-27T03:36:49.742Z,0.79
2023-02-27T03:39:45.629Z,0.80
2023-02-27T03:42:15.989Z,0.81
2023-02-27T03:45:30.022Z,0.73
2023-02-27T03:47:57.331Z,0.76
2023-02-27T03:50:25.037Z,0.80
2023-02-27T03:52:52.414Z,0.77
2023-02-27T03:55:30.509Z,0.83
2023-02-27T03:57:57.702Z,0.88
2023-02-27T04:00:26.210Z,0.82
2023-02-27T04:02:56.182Z,0.88
2023-02-27T04:05:28.966Z,0.93
2023-02-27T04:08:15.751Z,0.88
2023-02-27T04:11:07.058Z,0.90
2023-02-27T04:13:44.361Z,0.97
2023-02-27T04:16:38.514Z,0.95
2023-02-27T04:19:32.961Z,0.92
2023-02-27T04:22:11.082Z,0.90
2023-02-27T04:25:15.948Z,0.94
2023-02-27T04:28:19.382Z,0.92
2023-02-27T04:30:49.012Z,0.94
2023-02-27T04:33:18.892Z,0.96
2023-02-27T04:36:17.979Z,0.90
2023-02-27T04:38:51.933Z,0.88
2023-02-27T04:41:28.360Z,0.91
2023-02-27T04:43:56.886Z,0.85
2023-02-27T04:46:28.135Z,0.83
2023-02-27T04:49:04.381Z,0.88
2023-02-27T04:51:42.753Z,0.88
2023-02-27T04:54:17.903Z,0.85
2023-02-27T04:56:49.707Z,0.88
2023-02-27T04:59:26.136Z,0.85
2023-02-27T05:02:04.671Z,0.96
2023-02-27T05:04:35.737Z,0.91
2023-02-27T05:07:05.869Z,0.82
2023-02-27T05:10:25.116Z,0.83
2023-02-27T05:12:58.414Z,0.84
2023-02-27T05:15:35.813Z,0.91
2023-02-27T05:18:17.141Z,0.94
2023-02-27T05:21:41.665Z,0.84
2023-02-27T05:24:21.428Z,0.76
2023-02-27T05:27:02.963Z,0.79
2023-02-27T05:29:41.747Z,0.75
2023-02-27T05:32:15.072Z,0.75
2023-02-27T05:34:52.462Z,0.78
2023-02-27T05:37:48.188Z,0.82
2023-02-27T05:40:31.374Z,0.79
2023-02-27T05:43:06.624Z,0.80
2023-02-27T05:45:37.032Z,0.75
2023-02-27T05:48:09.152Z,0.78
2023-02-27T05:50:39.270Z,0.84
2023-02-27T05:53:14.267Z,0.79
2023-02-27T05:55:56.776Z,0.79
2023-02-27T05:59:23.097Z,0.85
2023-02-27T06:01:50.052Z,0.88
2023-02-27T06:04:16.913Z,0.93
2023-02-27T06:06:45.229Z,0.85
2023-02-27T06:09:12.070Z,0.93
2023-02-27T06:11:38.866Z,0.89
2023-02-27T06:14:05.837Z,0.90
2023-02-27T06:16:32.955Z,0.90
2023-02-27T06:18:59.982Z,0.91
2023-02-27T06:21:26.938Z,0.99
2023-02-27T06:23:53.811Z,0.95
2023-02-27T06:26:20.696Z,0.98
2023-02-27T06:28:47.735Z,0.95
2023-02-27T06:31:14.613Z,0.94
2023-02-27T06:33:41.507Z,1.00
2023-02-27T06:36:08.429Z,1.00
2023-02-27T06:38:35.255Z,1.10
2023-02-27T06:41:03.953Z,1.05
2023-02-27T06:43:34.796Z,1.02
2023-02-27T06:46:01.816Z,1.06
2023-02-27T06:48:28.961Z,1.05
2023-02-27T06:50:56.841Z,0.96
2023-02-27T06:53:24.906Z,0.99
2023-02-27T06:55:52.874Z,0.99
2023-02-27T06:58:19.747Z,1.04
2023-02-27T07:00:46.660Z,0.99
2023-02-27T07:03:13.469Z,1.03
2023-02-27T07:05:41.884Z,1.09
2023-02-27T07:08:09.851Z,1.16
2023-02-27T07:10:36.811Z,1.06
2023-02-27T07:13:03.650Z,1.07
2023-02-27T07:15:30.627Z,1.14
2023-02-27T07:17:57.477Z,1.16
2023-02-27T07:20:24.370Z,1.19
2023-02-27T07:22:51.212Z,1.16
2023-02-27T07:25:18.153Z,1.22
2023-02-27T07:27:46.456Z,1.20
2023-02-27T07:30:13.785Z,1.17
2023-02-27T07:32:40.692Z,1.21
2023-02-27T07:35:08.669Z,1.36
2023-02-27T07:37:38.793Z,1.28
2023-02-27T07:40:09.191Z,1.42
2023-02-27T07:42:36.115Z,1.36
2023-02-27T07:45:03.066Z,1.38
2023-02-27T07:47:30.644Z,1.28
2023-02-27T07:49:57.578Z,1.51
2023-02-27T07:52:25.477Z,1.52
2023-02-27T07:54:52.560Z,1.55
2023-02-27T07:57:19.507Z,1.76
2023-02-27T07:59:49.323Z,1.89
2023-02-27T08:02:16.226Z,1.70
2023-02-27T08:04:43.239Z,1.65
2023-02-27T08:07:10.235Z,1.76
2023-02-27T08:09:37.080Z,1.63
2023-02-27T08:12:04.729Z,1.56
2023-02-27T08:14:31.727Z,1.40
2023-02-27T08:17:00.396Z,1.47
2023-02-27T08:19:27.526Z,1.51
2023-02-27T08:21:54.467Z,1.47
2023-02-27T08:24:21.928Z,1.47
2023-02-27T08:26:48.904Z,1.59
2023-02-27T08:29:17.048Z,1.68
2023-02-27T08:31:44.379Z,1.81
2023-02-27T08:34:14.002Z,1.73
2023-02-27T08:36:41.198Z,1.91
2023-02-27T08:39:08.996Z,2.00
2023-02-27T08:41:36.152Z,2.18
2023-02-27T08:44:03.173Z,2.13
2023-02-27T08:46:30.374Z,2.22
2023-02-27T08:48:57.401Z,2.41
2023-02-27T08:51:24.278Z,2.38
2023-02-27T08:53:51.157Z,2.03
2023-02-27T08:56:18.020Z,2.15
2023-02-27T08:58:44.779Z,2.33
2023-02-27T09:01:11.736Z,2.07
2023-02-27T09:03:38.571Z,2.09
2023-02-27T09:06:05.595Z,2.09
2023-02-27T09:08:32.684Z,2.08
2023-02-27T09:10:59.624Z,2.01
2023-02-27T09:13:26.995Z,2.03
2023-02-27T09:15:54.354Z,2.14
2023-02-27T09:18:22.109Z,2.30
2023-02-27T09:20:51.303Z,2.17
2023-02-27T09:23:18.643Z,2.09
2023-02-27T09:25:47.481Z,2.20
2023-02-27T09:28:14.398Z,2.39
2023-02-27T09:30:42.198Z,2.58
2023-02-27T09:33:09.266Z,2.47
2023-02-27T09:35:36.182Z,2.46
2023-02-27T09:38:03.602Z,2.23
2023-02-27T09:40:39.782Z,2.03
2023-02-27T09:43:17.177Z,2.16
2023-02-27T09:45:47.035Z,2.17
2023-02-27T09:48:47.249Z,2.35
2023-02-27T09:51:19.340Z,2.38
2023-02-27T09:53:49.400Z,2.45
2023-02-27T09:56:47.650Z,2.75
2023-02-27T09:59:42.636Z,2.56
2023-02-27T10:02:34.911Z,2.59
2023-02-27T10:05:31.381Z,2.56
2023-02-27T10:08:06.945Z,2.76
2023-02-27T10:10:44.761Z,2.92
2023-02-27T10:13:32.555Z,2.94
2023-02-27T10:16:00.422Z,2.84
2023-02-27T10:18:31.997Z,2.75
2023-02-27T10:21:03.107Z,2.61
2023-02-27T10:23:51.318Z,2.69
2023-02-27T10:26:30.172Z,2.81
2023-02-27T10:29:00.165Z,3.20
2023-02-27T10:31:31.958Z,3.33
2023-02-27T10:34:00.880Z,3.33
2023-02-27T10:36:34.449Z,3.24
2023-02-27T10:39:07.219Z,3.07
2023-02-27T10:41:36.380Z,2.97
2023-02-27T10:44:03.672Z,2.84
2023-02-27T10:46:34.764Z,2.87
2023-02-27T10:49:05.763Z,2.88
2023-02-27T10:51:38.460Z,2.88
2023-02-27T10:54:21.294Z,3.02
2023-02-27T10:56:52.342Z,2.99
2023-02-27T10:59:26.506Z,3.18
2023-02-27T11:01:57.625Z,3.17
2023-02-27T11:04:40.601Z,3.05
2023-02-27T11:07:16.069Z,2.99
2023-02-27T11:09:43.424Z,2.93
2023-02-27T11:12:24.567Z,3.12
2023-02-27T11:14:56.967Z,3.18
2023-02-27T11:17:32.433Z,3.22
2023-02-27T11:20:01.415Z,3.26
2023-02-27T11:22:31.114Z,3.28
2023-02-27T11:25:30.452Z,3.22
2023-02-27T11:28:21.427Z,3.11
2023-02-27T11:31:07.338Z,3.38
2023-02-27T11:33:38.439Z,3.40
2023-02-27T11:36:06.255Z,3.38
2023-02-27T11:38:34.900Z,3.54
2023-02-27T11:41:07.557Z,3.34
2023-02-27T11:43:42.927Z,3.58
2023-02-27T11:46:46.400Z,3.59
2023-02-27T11:49:33.837Z,3.46
2023-02-27T11:52:09.586Z,3.36
2023-02-27T11:54:45.617Z,3.27
2023-02-27T11:57:35.687Z,3.44
2023-02-27T12:00:08.569Z,3.57
2023-02-27T12:02:47.810Z,3.40
2023-02-27T12:05:36.565Z,3.59
2023-02-27T12:08:19.643Z,3.68
2023-02-27T12:11:12.881Z,3.79
2023-02-27T12:13:43.170Z,3.97
2023-02-27T12:16:38.556Z,4.24
2023-02-27T12:19:20.510Z,4.43
2023-02-27T12:22:19.020Z,4.40
2023-02-27T12:25:28.915Z,4.33
2023-02-27T12:28:31.619Z,3.78
2023-02-27T12:31:13.623Z,3.77
2023-02-27T12:33:57.662Z,3.92
2023-02-27T12:36:25.124Z,3.65
2023-02-27T12:38:52.325Z,3.71
2023-02-27T12:41:41.836Z,3.74
2023-02-27T12:44:33.431Z,3.67
2023-02-27T12:47:18.235Z,3.69
2023-02-27T12:49:53.736Z,3.67
2023-02-27T12:52:32.467Z,3.55
2023-02-27T12:55:14.877Z,3.50
2023-02-27T12:57:44.775Z,3.34
2023-02-27T13:00:20.523Z,3.45
2023-02-27T13:02:57.262Z,3.36
2023-02-27T13:05:32.707Z,3.29
2023-02-27T13:08:23.926Z,3.32
2023-02-27T13:11:04.898Z,3.40
2023-02-27T13:14:00.853Z,3.46
2023-02-27T13:16:37.316Z,3.43
2023-02-27T13:19:15.817Z,3.55
2023-02-27T13:21:55.045Z,3.48
2023-02-27T13:24:23.975Z,3.38
2023-02-27T13:27:03.494Z,3.41
2023-02-27T13:29:49.487Z,3.52
2023-02-27T13:32:16.416Z,3.43
2023-02-27T13:35:02.910Z,3.09
2023-02-27T13:37:56.688Z,3.10
2023-02-27T13:40:28.055Z,2.97
2023-02-27T13:42:58.982Z,3.01
2023-02-27T13:45:58.181Z,3.33
2023-02-27T13:48:33.999Z,3.39
2023-02-27T13:51:01.573Z,3.40
2023-02-27T13:53:30.073Z,3.15
2023-02-27T13:56:21.995Z,3.12
2023-02-27T13:58:50.260Z,3.06
2023-02-27T14:01:22.675Z,3.04
2023-02-27T14:03:56.759Z,3.00
2023-02-27T14:06:26.191Z,2.69
2023-02-27T14:09:08.789Z,2.78
2023-02-27T14:11:51.474Z,2.90
2023-02-27T14:14:50.345Z,2.79
2023-02-27T14:17:38.637Z,2.59
2023-02-27T14:20:18.058Z,2.48
2023-02-27T14:23:06.388Z,2.56
2023-02-27T14:25:34.878Z,2.43
2023-02-27T14:28:03.035Z,2.45
2023-02-27T14:30:43.523Z,2.67
2023-02-27T14:33:10.362Z,2.61
2023-02-27T14:35:38.197Z,2.58
2023-02-27T14:38:10.622Z,2.58
2023-02-27T14:40:48.347Z,2.54
2023-02-27T14:43:45.322Z,2.70
2023-02-27T14:46:36.183Z,2.70
2023-02-27T14:49:25.246Z,2.56
2023-02-27T14:51:53.932Z,2.42
2023-02-27T14:54:26.108Z,2.36
2023-02-27T14:57:01.111Z,2.47
2023-02-27T14:59:31.610Z,2.55
2023-02-27T15:02:02.286Z,2.39
2023-02-27T15:04:31.019Z,2.55
2023-02-27T15:06:59.744Z,2.50
2023-02-27T15:09:43.195Z,2.76
2023-02-27T15:12:17.740Z,2.87
2023-02-27T15:14:51.322Z,2.90
2023-02-27T15:17:24.701Z,2.91
2023-02-27T15:19:59.624Z,2.94
2023-02-27T15:22:39.326Z,2.97
2023-02-27T15:25:27.310Z,2.88
2023-02-27T15:27:57.867Z,2.68
2023-02-27T15:30:24.992Z,2.70
2023-02-27T15:32:54.773Z,2.71
2023-02-27T15:35:30.236Z,2.58
2023-02-27T15:38:01.067Z,2.71
2023-02-27T15:40:33.405Z,2.79
2023-02-27T15:43:01.519Z,2.61
2023-02-27T15:45:35.305Z,2.46
2023-02-27T15:48:03.229Z,2.16
2023-02-27T15:50:41.692Z,2.04
2023-02-27T15:53:08.522Z,2.08
2023-02-27T15:55:39.794Z,1.89
2023-02-27T15:58:27.773Z,1.75
2023-02-27T16:01:13.825Z,1.69
2023-02-27T16:03:48.284Z,1.65
2023-02-27T16:06:26.707Z,1.60
2023-02-27T16:09:00.679Z,1.43
2023-02-27T16:11:31.847Z,1.46
2023-02-27T16:13:59.441Z,1.47
2023-02-27T16:16:37.711Z,1.47
2023-02-27T16:19:28.129Z,1.40
2023-02-27T16:22:03.784Z,1.38
2023-02-27T16:24:32.219Z,1.29
2023-02-27T16:27:00.499Z,1.35
2023-02-27T16:29:36.833Z,1.16
2023-02-27T16:32:04.544Z,1.16
2023-02-27T16:34:47.983Z,1.05
2023-02-27T16:37:24.266Z,1.33
2023-02-27T16:39:55.125Z,1.16
2023-02-27T16:42:22.335Z,1.17
2023-02-27T16:44:49.243Z,1.22
2023-02-27T16:47:16.250Z,1.23
2023-02-27T16:49:44.557Z,1.25
2023-02-27T16:52:12.300Z,1.21
2023-02-27T16:54:39.167Z,1.29
2023-02-27T16:57:06.105Z,1.24
2023-02-27T16:59:39.977Z,1.26
2023-02-27T17:02:16.185Z,1.25
2023-02-27T17:04:44.608Z,1.39
2023-02-27T17:07:16.231Z,1.41
2023-02-27T17:09:45.051Z,1.27
2023-02-27T17:12:12.049Z,1.37
2023-02-27T17:14:39.003Z,1.16
2023-02-27T17:17:07.047Z,1.30
2023-02-27T17:19:35.107Z,1.33
2023-02-27T17:22:02.238Z,1.48
2023-02-27T17:24:29.628Z,1.48
2023-02-27T17:26:56.464Z,1.32
2023-02-27T17:29:24.236Z,1.23
2023-02-27T17:31:51.753Z,1.23
2023-02-27T17:34:18.829Z,1.21
2023-02-27T17:36:45.998Z,1.21
2023-02-27T17:39:16.905Z,1.10
2023-02-27T17:41:44.444Z,1.10
2023-02-27T17:44:12.196Z,0.92
2023-02-27T17:46:40.171Z,1.11
2023-02-27T17:49:07.437Z,1.01
2023-02-27T17:51:34.358Z,1.03
2023-02-27T17:54:04.007Z,0.96
2023-02-27T17:56:31.509Z,0.91
2023-02-27T17:58:58.655Z,0.90
2023-02-27T18:01:26.612Z,0.89
2023-02-27T18:03:54.941Z,0.89
2023-02-27T18:06:22.935Z,0.78
2023-02-27T18:08:50.148Z,0.64
2023-02-27T18:11:20.766Z,0.55
2023-02-27T18:13:48.711Z,0.57
2023-02-27T18:16:15.672Z,0.47
2023-02-27T18:18:43.569Z,0.49
2023-02-27T18:21:14.400Z,0.54
2023-02-27T18:23:42.306Z,0.52
2023-02-27T18:26:27.142Z,0.53
2023-02-27T18:28:56.874Z,0.59
2023-02-27T18:31:27.974Z,0.56
2023-02-27T18:33:55.962Z,0.56
2023-02-27T18:36:23.114Z,0.52
2023-02-27T18:38:50.124Z,0.48
2023-02-27T18:41:17.294Z,0.47
2023-02-27T18:43:44.680Z,0.51
2023-02-27T18:46:12.975Z,0.51
2023-02-27T18:48:40.986Z,0.47
2023-02-27T18:51:12.412Z,0.37
2023-02-27T18:53:41.229Z,0.46
2023-02-27T18:56:09.335Z,0.47
2023-02-27T18:58:37.093Z,0.47
2023-02-27T19:01:05.260Z,0.39
2023-02-27T19:03:32.418Z,0.45
2023-02-27T19:05:59.501Z,0.53
2023-02-27T19:08:29.335Z,0.52
2023-02-27T19:10:58.178Z,0.50
2023-02-27T19:13:26.105Z,0.46
2023-02-27T19:15:53.664Z,0.45
2023-02-27T19:18:20.597Z,0.48
2023-02-27T19:20:47.824Z,0.43
2023-02-27T19:23:14.664Z,0.50
2023-02-27T19:25:46.797Z,0.53
2023-02-27T19:28:13.881Z,0.51
2023-02-27T19:30:40.966Z,0.55
2023-02-27T19:33:08.044Z,0.59
2023-02-27T19:35:35.089Z,0.49
2023-02-27T19:38:02.071Z,0.43
2023-02-27T19:40:29.019Z,0.41
2023-02-27T19:42:56.046Z,0.33
2023-02-27T19:45:23.582Z,0.39
2023-02-27T19:47:50.610Z,0.35
2023-02-27T19:50:18.002Z,0.32
2023-02-27T19:52:44.884Z,0.30
2023-02-27T19:55:12.183Z,0.40
2023-02-27T19:57:39.120Z,0.37
2023-02-27T20:00:08.578Z,0.36
2023-02-27T20:02:42.489Z,0.46
2023-02-27T20:05:12.224Z,0.32
2023-02-27T20:07:40.499Z,0.33
2023-02-27T20:10:07.608Z,0.33
2023-02-27T20:39:32.736Z,0.52
2023-02-27T20:41:59.749Z,0.46
2023-02-27T20:44:26.571Z,0.38
2023-02-27T20:46:53.590Z,0.43
2023-02-27T20:49:22.134Z,0.35
2023-02-27T20:51:49.129Z,0.39
2023-02-27T20:54:20.732Z,0.34
2023-02-27T20:56:51.997Z,0.35
2023-02-27T20:59:21.030Z,0.34
2023-02-27T21:01:51.797Z,0.34
2023-02-27T21:04:24.246Z,0.30
2023-02-27T21:06:51.848Z,0.39
2023-02-27T21:09:19.082Z,0.35
2023-02-27T21:11:46.092Z,0.35
2023-02-27T21:14:12.950Z,0.40
2023-02-27T21:16:40.728Z,0.39
2023-02-27T21:19:08.368Z,0.41
2023-02-27T21:21:36.491Z,0.43
2023-02-27T21:24:03.642Z,0.49
2023-02-27T21:26:35.461Z,0.56
2023-02-27T21:29:06.435Z,0.53
2023-02-27T21:31:35.593Z,0.51
2023-02-27T21:34:05.766Z,0.51
2023-02-27T21:36:38.407Z,0.53
2023-02-27T21:39:07.346Z,0.53
2023-02-27T21:41:38.107Z,0.57
2023-02-27T21:44:06.969Z,0.54
2023-02-27T21:46:34.503Z,0.56
2023-02-27T21:49:01.961Z,0.62
2023-02-27T21:51:40.063Z,0.62
2023-02-27T21:54:10.617Z,0.61
2023-02-27T21:56:38.743Z,0.62
2023-02-27T21:59:06.339Z,0.63
2023-02-27T22:01:34.036Z,0.61
2023-02-27T22:04:02.170Z,0.66
2023-02-27T22:06:34.027Z,0.70
2023-02-27T22:09:05.009Z,0.64
2023-02-27T22:11:34.306Z,0.77
2023-02-27T22:14:01.247Z,0.77
2023-02-27T22:16:28.190Z,0.82
2023-02-27T22:18:55.162Z,0.85
2023-02-27T22:21:25.375Z,0.79
2023-02-27T22:23:52.266Z,0.82
2023-02-27T22:26:21.842Z,0.79
2023-02-27T22:28:48.787Z,0.82
2023-02-27T22:31:25.310Z,0.78
2023-02-27T22:33:55.681Z,0.75
2023-02-27T22:36:29.328Z,0.83
2023-02-27T22:38:57.006Z,0.79
2023-02-27T22:41:30.920Z,0.81
2023-02-27T22:44:00.118Z,0.78
2023-02-27T22:46:29.922Z,0.79
2023-02-27T22:49:18.251Z,0.89
2023-02-27T22:51:47.291Z,0.88
2023-02-27T22:54:16.458Z,0.84
2023-02-27T22:56:43.885Z,0.89
2023-02-27T22:59:11.030Z,0.93
2023-02-27T23:01:38.477Z,1.01
2023-02-27T23:04:11.500Z,1.04
2023-02-27T23:06:40.716Z,1.02
2023-02-27T23:09:10.951Z,1.00
2023-02-27T23:11:37.893Z,1.01
2023-02-27T23:14:04.727Z,0.98
2023-02-27T23:16:31.652Z,1.02
2023-02-27T23:18:59.888Z,0.96
2023-02-27T23:21:35.640Z,1.02
2023-02-27T23:24:07.306Z,1.03
2023-02-27T23:26:39.378Z,0.98
2023-02-27T23:29:07.098Z,0.95
2023-02-27T23:31:36.136Z,0.95
2023-02-27T23:34:06.019Z,0.98
2023-02-27T23:36:34.374Z,0.85
2023-02-27T23:39:03.085Z,0.78
2023-02-27T23:41:30.616Z,0.73
2023-02-27T23:44:16.235Z,0.71
2023-02-27T23:46:43.417Z,0.70
2023-02-27T23:49:11.290Z,0.75
2023-02-27T23:51:38.352Z,0.77
2023-02-27T23:54:05.271Z,0.79
2023-02-27T23:56:32.237Z,0.82
2023-02-27T23:59:02.076Z,0.77
